Weather observations for the past three days for
Woodward, West Woodward Airport
Metric (Imperial)
Date Time (cdt) Wind (kph) Vis. (km) Weather Sky Cond. Temperature (ºC) Relative Humidity Wind Chill (°C) Heat Index (°C) Pressure Precipitation (cm)
Air Dwpt 6 hour altimeter (cm) sea level (mb) 1 hr 3 hr 6 hr
Max. Min.
02 07:30 S 20 16.09 Fair CLR 25.7 14.8 51% 26 76.3 0.0
02 07:10 S 19 16.09 Fair CLR 25.6 14.8 51% 26 76.28 0.0
02 06:50 S 19 G 28 16.09 Fair CLR 25.7 14.7 28.6 25.7 51% 26 76.28 0.0
02 06:35 S 20 16.09 Fair CLR 26 14.6 49% 27 76.28 0.0
02 06:10 S 24 16.09 Fair CLR 26.1 14.6 49% 27 76.25 0.0
02 05:50 S 20 G 30 16.09 Fair CLR 26.2 14.5 49% 27 76.28 0.0
02 05:30 S 20 16.09 Fair CLR 26.5 14.3 47% 27 76.28 0.0
02 05:10 S 22 16.09 Fair CLR 26.5 14.1 47% 27 76.28 0.0
02 04:50 S 22 16.09 Fair CLR 26.6 14 46% 27 76.28 0.0
02 04:30 S 19 G 31 16.09 Partly Cloudy SCT110 26.9 13.6 44% 27 76.28 0.0
02 04:10 S 22 G 30 16.09 Mostly Cloudy BKN110 27 13.5 43% 27 76.28 0.0
02 03:50 S 20 16.09 Mostly Cloudy BKN110 27 13.1 42% 27 76.28 0.0
02 03:30 S 26 16.09 Partly Cloudy SCT110 27.1 12.8 41% 27 76.25 0.0
02 03:10 S 24 16.09 Fair CLR 27 12.5 41% 27 76.25 0.0
02 02:50 S 20 16.09 Fair CLR 27.1 12.2 40% 27 76.25 0.0
02 02:30 S 22 16.09 Partly Cloudy SCT110 27.5 12 38% 27 76.25 0.0
02 02:10 S 26 G 31 16.09 Partly Cloudy SCT120 27.6 11.5 37% 27 76.25 0.0
02 01:50 S 22 16.09 Fair CLR 27.7 10.9 35% 27 76.25 0.0
02 01:30 S 22 16.09 Fair CLR 28.1 10.3 33% 27 76.25 0.0
02 01:10 S 24 G 31 16.09 Fair CLR 28.6 10 31% 28 76.25 0.0
02 00:50 S 22 16.09 Fair CLR 29 9 35.1 29 29% 28 76.25 0.0
02 00:30 S 20 16.09 Fair CLR 29.1 8.9 28% 28 76.25 0.0
02 00:10 S 19 16.09 Fair CLR 29.2 9.2 29% 28 76.25 0.0
01 23:30 S 19 16.09 Fair CLR 29.3 9.7 29% 28 76.25 0.0
01 23:10 S 19 16.09 Fair CLR 29.7 9.8 29% 28 76.25 0.0
01 22:50 S 20 16.09 Fair CLR 29.7 10 29% 28 76.25 0.0
01 22:30 S 19 16.09 Fair CLR 29.5 10.1 30% 28 76.25 0.0
01 22:10 S 15 16.09 Fair CLR 29.4 10.1 30% 28 76.25 0.0
01 21:50 S 15 16.09 Fair CLR 29.7 10 29% 28 76.25 0.0
01 21:30 S 15 16.09 Fair CLR 30.5 10 28% 29 76.23 0.0
01 21:10 S 17 16.09 Fair CLR 30.6 10.1 28% 29 76.2 0.0
01 20:50 S 17 16.09 Fair CLR 30.8 10.4 28% 29 76.2 0.0
01 20:30 S 15 16.09 Fair CLR 31.5 10.6 28% 30 76.17 0.0
01 20:10 S 17 16.09 Fair CLR 32.1 11 27% 31 76.15 0.0
01 19:50 S 17 16.09 Fair CLR 33.1 11.1 26% 32 76.12 0.0
01 19:30 SE 22 16.09 Fair CLR 34 11.2 25% 32 76.12 0.0
01 19:10 S 22 G 33 16.09 Fair CLR 34.8 11.3 24% 33 76.12 0.0
01 18:50 SE 31 16.09 Fair CLR 35.5 11.4 38.1 34.4 23% 34 76.12 0.0
01 18:30 S 20 16.09 Fair CLR 35.9 10.7 22% 34 76.12 0.0
01 18:10 S 17 G 31 16.09 Fair CLR 36.5 10.7 21% 35 76.12 0.0
01 17:50 S 28 16.09 Partly Cloudy SCT090 36.7 11.4 22% 35 76.12 0.0
01 17:30 S 20 G 33 16.09 Partly Cloudy SCT090 36.6 11.8 22% 35 76.12 0.0
01 17:10 S 24 G 35 16.09 Partly Cloudy SCT090 SCT110 37.3 12.1 22% 36 76.12 0.0
01 16:50 S 15 G 26 16.09 Partly Cloudy SCT100 36 12.2 24% 35 76.15 0.0
01 16:30 SE 20 16.09 Mostly Cloudy SCT090 BKN110 36.1 11.9 23% 35 76.17 0.0
01 16:10 SE 6 16.09 Partly Cloudy SCT100 35.6 12.1 24% 34 76.17 0.0
01 15:50 S 17 G 26 16.09 Partly Cloudy SCT100 37.1 11.9 22% 36 76.2 0.0
01 15:30 SW 22 G 37 16.09 Partly Cloudy SCT100 38 12.3 21% 37 76.23 0.0
01 15:10 S 20 G 30 16.09 Fair CLR 37.2 12.3 22% 36 76.25 0.0
01 14:50 S 20 G 26 16.09 Partly Cloudy SCT090 SCT110 37.6 12 21% 36 76.25 0.0
01 14:30 S 15 G 26 16.09 Partly Cloudy SCT085 SCT110 36 11.9 23% 35 76.28 0.0
01 14:10 S 17 G 26 16.09 Partly Cloudy SCT085 SCT110 37.1 12.2 22% 36 76.3 0.0
01 13:50 SW 19 G 44 16.09 Mostly Cloudy BKN085 36.8 12.8 24% 36 76.3 0.0
01 13:30 SW 17 G 33 16.09 Partly Cloudy SCT095 35.3 12.5 25% 34 76.33 0.0
01 13:10 SW 19 G 30 16.09 Partly Cloudy SCT075 SCT085 35.8 12.3 24% 35 76.33 0.0
01 12:50 S 22 G 30 16.09 Partly Cloudy SCT075 SCT085 35 12.8 36.1 23 26% 34 76.35 0.0
01 12:30 S 17 G 28 16.09 Partly Cloudy SCT075 35 13.3 27% 34 76.38 0.0
01 12:10 SW 19 G 33 16.09 Fair CLR 35.4 13.8 27% 35 76.38 0.0
01 11:50 S 26 G 31 16.09 Fair CLR 34.9 14 28% 34 76.4 0.0
01 11:30 S 20 G 35 16.09 Fair CLR 34.5 14.1 29% 34 76.4 0.0
01 11:10 S 22 16.09 Fair CLR 33.9 13.9 30% 33 76.4 0.0
01 10:50 S 22 16.09 Fair CLR 33.6 13.9 30% 33 76.4 0.0
01 10:30 SW 24 G 30 16.09 Fair CLR 32.8 13.7 31% 32 76.4 0.0
01 10:10 SW 22 G 30 16.09 Fair CLR 31.8 13.4 33% 31 76.4 0.0
01 09:50 SW 26 G 35 16.09 Partly Cloudy SCT100 31.2 13.1 33% 30 76.43 0.0
01 09:30 SW 20 G 30 16.09 Partly Cloudy SCT100 30.7 13 34% 30 76.43 0.0
01 09:10 SW 22 G 28 16.09 Fair CLR 29.7 12.7 35% 29 76.43 0.0
01 08:50 SW 15 16.09 Fair CLR 28.3 13 39% 28 76.43 0.0
01 08:30 SW 11 16.09 Fair CLR 27 12.8 41% 27 76.43 0.0
01 08:10 SW 7 16.09 Fair CLR 25.4 12.6 45% 26 76.43 0.0
01 07:50 SW 9 16.09 Fair CLR 24.2 12.5 48% 25 76.43 0.0
01 07:30 SW 9 16.09 Fair CLR 23.2 12.3 50% 76.4 0.0
01 07:10 SW 11 16.09 Fair CLR 23.3 12.1 49% 76.4 0.0
01 06:50 S 15 16.09 Fair CLR 24 12.1 28.6 23.7 47% 25 76.38 0.0
01 06:30 S 13 16.09 Fair CLR 24 11.9 47% 25 76.38 0.0
01 06:10 S 13 16.09 Fair CLR 24.7 11.8 45% 26 76.38 0.0
01 05:50 S 11 16.09 Fair CLR 25 11.7 43% 26 76.38 0.0
01 05:30 S 19 16.09 Fair CLR 26.1 11.5 40% 26 76.38 0.0
01 05:10 S 22 16.09 Fair CLR 26.2 11.5 40% 26 76.38 0.0
01 04:50 S 20 16.09 Fair CLR 26.2 11.2 39% 26 76.38 0.0
01 04:30 S 20 16.09 Fair CLR 26.4 11 38% 26 76.35 0.0
01 04:10 S 22 16.09 Fair CLR 26.4 11 38% 26 76.33 0.0
01 03:50 S 22 G 35 16.09 Fair CLR 26.6 10.8 37% 26 76.33 0.0
01 03:30 S 26 G 37 16.09 Fair CLR 27 10.6 36% 27 76.33 0.0
01 03:10 S 30 G 43 16.09 Fair CLR 27.4 10.5 35% 27 76.33 0.0
01 02:50 S 39 G 46 16.09 Fair and Breezy CLR 27.7 10.5 34% 27 76.3 0.0
01 02:30 S 31 G 41 16.09 Fair CLR 27.9 10.3 33% 27 76.3 0.0
01 02:10 S 31 G 46 16.09 Fair CLR 28.1 10.2 33% 27 76.3 0.0
01 01:50 S 28 G 43 16.09 Fair CLR 28.2 10.1 32% 27 76.3 0.0
01 01:30 S 28 G 37 16.09 Fair CLR 28 10 32% 27 76.33 0.0
01 01:10 S 26 G 35 16.09 Fair CLR 28.4 10.1 32% 27 76.33 0.0
01 00:50 S 24 G 33 16.09 Fair CLR 28.7 10.2 36.3 28.7 32% 28 76.3 0.0
01 00:30 S 20 16.09 Fair CLR 28.9 10.3 31% 28 76.3 0.0
01 00:10 S 24 16.09 Fair CLR 29.1 10.3 31% 28 76.3 0.0
31 23:50 S 24 16.09 Fair CLR 29.4 10.5 31% 28 76.3 0.0
31 23:30 S 20 16.09 Fair CLR 29.7 10.5 30% 29 76.3 0.0
31 23:10 S 22 16.09 Fair CLR 29.9 10.7 30% 29 76.3 0.0
31 22:50 S 20 16.09 Fair CLR 30 11 31% 29 76.28 0.0
31 22:30 S 22 16.09 Fair CLR 30.8 11 29% 29 76.28 0.0
31 22:10 S 20 16.09 Fair CLR 31 11.1 29% 30 76.25 0.0
31 21:50 S 19 G 28 16.09 Fair CLR 31 11.2 30% 30 76.23 0.0
31 21:30 S 17 16.09 Fair CLR 31 11.2 30% 30 76.2 0.0
31 21:10 S 15 16.09 Fair CLR 30.7 11 30% 29 76.17 0.0
31 20:50 S 15 16.09 Fair CLR 30.8 10.7 29% 29 76.15 0.0
31 20:30 S 13 16.09 Fair CLR 31.9 10.6 27% 30 76.12 0.0
31 20:10 S 19 16.09 Fair CLR 32.9 10.5 25% 31 76.1 0.0
31 19:50 S 17 16.09 Fair CLR 34.2 10.7 24% 33 76.1 0.0
31 19:30 S 24 G 35 16.09 Fair CLR 35.2 10.6 22% 34 76.1 0.0
31 19:10 S 22 G 28 16.09 Fair CLR 36 10.9 22% 34 76.1 0.0
31 18:30 S 24 G 35 16.09 Fair CLR 37.1 11.3 21% 36 76.07 0.0
31 18:10 S 28 16.09 Fair CLR 37.7 11 20% 36 76.07 0.0
31 17:50 S 22 G 31 16.09 Fair CLR 38.2 10.9 19% 37 76.07 0.0
31 17:30 S 24 G 35 16.09 Fair CLR 38.7 10.6 18% 37 76.07 0.0
31 17:10 S 15 G 33 16.09 Partly Cloudy SCT100 38.9 10.1 17% 37 76.07 0.0
31 16:50 SW 24 G 31 16.09 Partly Cloudy SCT100 39.2 10.6 18% 38 76.1 0.0
31 16:30 S 19 16.09 Fair CLR 39.2 9.6 17% 37 76.1 0.0
31 16:10 S 19 G 28 16.09 Fair CLR 39.6 9.5 16% 38 76.12 0.0
31 15:50 S 15 16.09 Fair CLR 39.3 10.6 18% 38 76.12 0.0
31 15:30 S 15 16.09 Partly Cloudy SCT100 39 10.5 18% 37 76.15 0.0
31 15:10 S 17 G 26 16.09 Fair CLR 38.7 11 19% 37 76.17 0.0
31 14:50 S 28 16.09 Fair CLR 38.7 11.1 19% 37 76.17 0.0
31 14:30 SW 22 G 30 16.09 Fair CLR 39.1 11.3 19% 38 76.2 0.0
31 14:10 SW 15 16.09 Fair CLR 38.1 11.6 20% 37 76.2 0.0
31 13:50 SW 13 G 26 16.09 Fair CLR 37.6 11.3 20% 36 76.23 0.0
31 13:30 SW 13 16.09 Fair CLR 38.2 11.8 20% 37 76.25 0.0
31 13:10 SW 20 G 26 16.09 Fair CLR 37.6 12 21% 36 76.25 0.0
31 12:50 S 20 G 31 16.09 Fair CLR 37.4 12 37.5 25.2 22% 36 76.28 0.0
31 12:30 S 17 G 26 16.09 Fair CLR 37.4 12.1 22% 36 76.28 0.0
31 12:10 SW 13 G 26 16.09 Fair CLR 36.6 12.2 23% 35 76.3 0.0
31 11:50 S 19 16.09 Fair CLR 36.1 12.3 24% 35 76.3 0.0
31 11:30 S 20 16.09 Fair CLR 35.2 12.3 25% 34 76.3 0.0
31 11:10 S 19 16.09 Fair CLR 34.5 12.4 26% 33 76.3 0.0
31 10:50 S 24 G 33 16.09 Fair CLR 33.7 12.5 28% 33 76.33 0.0
31 10:30 S 26 G 35 16.09 Fair CLR 32.6 12.6 30% 31 76.3 0.0
31 10:10 S 30 16.09 Fair CLR 31.9 12.8 31% 31 76.3 0.0
31 09:50 SW 26 G 35 16.09 Fair CLR 30.8 12.6 33% 30 76.3 0.0
31 09:30 SW 31 G 39 16.09 Fair CLR 30 12.6 34% 29 76.33 0.0
31 09:10 SW 26 G 39 16.09 Fair CLR 29.5 12.6 35% 29 76.33 0.0
31 08:50 S 28 G 35 16.09 Fair CLR 28.7 12.8 38% 28 76.3 0.0
31 08:30 S 26 G 31 16.09 Fair CLR 27.8 12.7 39% 27 76.28 0.0
31 08:10 S 24 16.09 Fair CLR 27 12.7 41% 27 76.28 0.0
31 07:50 S 15 16.09 Fair CLR 26 12.5 43% 26 76.28 0.0
31 07:30 S 15 16.09 Fair CLR 25.2 12.2 44% 26 76.25 0.0
31 07:10 S 13 16.09 Fair CLR 25.5 12 43% 26 76.25 0.0
31 06:50 S 17 16.09 Fair CLR 25.8 11.7 30.2 25.7 41% 26 76.25 0.0
31 06:30 S 20 16.09 Fair CLR 25.9 11.5 41% 26 76.23 0.0
31 06:10 S 20 16.09 Fair CLR 25.8 11.1 40% 26 76.23 0.0
31 05:50 S 22 G 31 16.09 Fair CLR 26.1 11 39% 26 76.23 0.0
31 05:30 S 22 G 30 16.09 Fair CLR 26.2 10.7 38% 26 76.23 0.0
31 05:10 S 22 G 30 16.09 Fair CLR 26.5 10.5 37% 26 76.2 0.0
31 04:50 S 22 G 33 16.09 Fair CLR 26.5 10.3 36% 26 76.2 0.0
31 04:30 S 24 G 33 16.09 Fair CLR 26.6 10.2 36% 26 76.17 0.0
31 04:10 S 26 16.09 Fair CLR 26.8 10 35% 26 76.17 0.0
31 03:50 S 22 16.09 Fair CLR 27 10 34% 27 76.15 0.0
31 03:30 S 26 G 33 16.09 Fair CLR 27.3 10 34% 27 76.15 0.0
31 03:10 S 26 G 37 16.09 Fair CLR 27.7 10 33% 27 76.15 0.0
31 02:50 S 26 G 33 16.09 Fair CLR 28 10 32% 27 76.15 0.0
31 02:30 S 28 G 37 16.09 Fair CLR 28.2 10 32% 27 76.15 0.0
31 02:10 S 26 G 33 16.09 Fair CLR 28.5 10.2 32% 28 76.15 0.0
31 01:50 S 26 G 37 16.09 Fair CLR 29 10.3 31% 28 76.15 0.0
31 01:30 S 28 G 35 16.09 Fair CLR 29.2 10.5 31% 28 76.15 0.0
31 01:10 S 26 G 35 16.09 Fair CLR 29.7 10.7 31% 29 76.12 0.0
31 00:50 S 26 G 39 16.09 Fair CLR 30.5 10.7 37.6 30.5 29% 29 76.12 0.0
31 00:30 S 30 G 44 16.09 Fair CLR 30.8 10.8 29% 29 76.1 0.0
31 00:10 S 33 16.09 Fair and Breezy CLR 31 10.9 29% 30 76.07 0.0
30 23:50 S 33 G 41 16.09 Fair and Breezy CLR 31.1 10.7 28% 30 76.05 0.0
30 23:30 S 30 G 43 16.09 Fair CLR 31.2 10.8 28% 30 76.05 0.0
30 23:10 S 30 G 39 16.09 Fair CLR 31.3 11 29% 30 76.05 0.0
30 22:50 S 28 16.09 Fair CLR 31.1 11.1 29% 30 76.05 0.0
30 22:30 S 24 16.09 Fair CLR 31.3 11.2 29% 30 76.05 0.0
30 22:10 S 20 G 31 16.09 Fair CLR 32.1 11.2 28% 31 76.05 0.0
30 21:50 S 24 16.09 Fair CLR 32.3 11.3 28% 31 76.05 0.0
30 21:30 S 22 16.09 Fair CLR 32.7 11.5 27% 31 76.05 0.0
30 21:10 S 22 16.09 Fair CLR 33 11.6 27% 32 76.02 0.0
30 20:50 S 20 16.09 Fair CLR 33.4 11.9 27% 32 76 0.0
30 20:30 S 20 16.09 Fair CLR 34 12 26% 33 75.97 0.0
30 20:10 S 20 G 31 16.09 Fair CLR 34.7 11.9 25% 33 75.95 0.0
30 19:50 S 20 16.09 Fair CLR 35.5 12 24% 34 75.97 0.0
30 19:30 S 24 G 33 16.09 Fair CLR 36.5 12 23% 35 75.95 0.0
30 19:10 S 24 G 33 16.09 Fair CLR 37.2 11.8 22% 36 75.97 0.0
30 18:50 S 22 G 33 16.09 Fair CLR 37.7 12.1 39.7 37.7 21% 37 75.97 0.0
30 18:30 S 26 G 31 16.09 Fair CLR 38.3 11.7 20% 37 75.95 0.0
30 18:10 S 22 G 31 16.09 Fair CLR 38.9 11.4 19% 38 75.95 0.0
30 17:50 S 20 G 37 16.09 Fair CLR 39 11.5 19% 38 75.95 0.0
30 17:30 S 30 G 37 16.09 Fair CLR 39.2 11.3 19% 38 75.95 0.0
30 17:10 S 28 G 41 16.09 Fair CLR 39.3 11.6 19% 38 75.95 0.0
30 16:50 S 26 G 37 16.09 Fair CLR 39.2 10.9 18% 38 75.95 0.0
30 16:30 S 30 G 41 16.09 Fair CLR 39.5 10.9 18% 38 75.95 0.0
30 16:10 S 31 G 39 16.09 Fair CLR 39.6 10.9 18% 38 75.97 0.0
30 15:50 S 24 G 37 16.09 Fair CLR 39.4 10.6 18% 38 75.97 0.0
30 15:30 S 30 G 46 16.09 Fair CLR 39.6 10.8 18% 38 76 0.0
30 15:10 S 28 G 41 16.09 Fair CLR 39.2 10.9 18% 38 76 0.0
30 14:50 S 24 G 41 16.09 Fair CLR 39.2 10.8 18% 38 76.02 0.0
30 14:30 S 30 G 41 16.09 Fair CLR 39.5 10.9 18% 38 76.05 0.0
30 14:10 S 28 G 41 16.09 Fair CLR 39.1 10.6 18% 38 76.05 0.0
30 13:50 S 30 G 41 16.09 Fair CLR 38.7 11.1 19% 37 76.07 0.0
30 13:30 SW 31 G 50 16.09 Fair CLR 38.6 11.3 19% 37 76.07 0.0
30 13:10 S 26 G 41 16.09 Fair CLR 38 12.6 22% 37 76.1 0.0
30 12:50 S 28 G 39 16.09 Fair CLR 37.7 13.4 37.7 25.9 23% 37 76.12 0.0
30 12:30 SW 33 G 39 16.09 Fair and Breezy CLR 37.3 13.2 24% 37 76.12 0.0
30 12:10 S 33 G 43 16.09 Fair and Breezy CLR 36.7 13.4 25% 36 76.15 0.0
30 11:50 SW 28 G 39 16.09 Fair CLR 36 13.2 25% 35 76.17 0.0
30 11:30 S 24 G 35 16.09 Fair CLR 35.4 13.3 26% 34 76.17 0.0
30 11:10 S 26 G 33 16.09 Fair CLR 34.5 13.3 28% 34 76.17 0.0
30 10:50 S 30 G 39 16.09 Fair CLR 33.7 13.3 29% 33 76.17 0.0
30 10:30 SW 28 G 37 16.09 Fair CLR 33 13.2 30% 32 76.17 0.0
30 10:10 SW 24 G 33 16.09 Fair CLR 32.3 13.5 32% 31 76.17 0.0
30 09:50 SW 30 G 37 16.09 Fair CLR 31.3 13.4 34% 30 76.17 0.0
30 09:30 S 30 G 39 16.09 Fair CLR 30.2 13.5 36% 29 76.17 0.0
30 09:10 S 28 G 37 16.09 Fair CLR 29.3 13.5 38% 29 76.17 0.0
30 08:50 S 24 G 39 16.09 Fair CLR 28.8 13.7 40% 28 76.2 0.0
30 08:30 S 24 G 35 16.09 Fair CLR 28.1 13.7 41% 28 76.17 0.0
30 08:10 S 22 G 33 16.09 Fair CLR 27.1 13.5 43% 27 76.17 0.0
Date Time (cdt) Wind (kph) Vis. (km) Weather Sky Cond. Air Dwpt Max. Min. Relative Humidity Wind Chill (°C) Heat Index (°C) altimeter (cm) sea level (mb) 1 hr 3 hr 6 hr
6 hour
Temperature (ºC) Pressure Precipitation (cm)